LGRPLTBJ

Guest
Details From LGRP - DIAGORAS
To LTBJ - ADNAN MENDERES
Flight Number -
Tags generated
Created
Modified
Stats Distance 122 nm / 225 km
Max Altitude 14,300 ft / 4,359 m
Waypoints 3
Social Downloads 0
Likes 0
Share VATSIM

Download

Looking for another format? Having issues loading an existing format? Contact us
Advertisement - Login to hide

Notes

Basic altitude profile: - Ascent Rate: 2500ft/min - Ascent Speed: 250kts - Cruise Altitude: 35000ft - Cruise Speed: 420kts - Descent Rate: 1500ft/min - Descent Speed: 250kts Options: - Use NATs: yes - Use PACOTS: yes - Use low airways: yes - Use high airways: yes

Route

LGRP BDR LTBJ

ID Type Via Altitude Latitude Longitude Leg Dist Tot Dist Heading (true) Name
O LGRP APT - 0 ft / 0 m 36.40542˚ 28.08619˚ - 0 nm - DIAGORAS
BDR NDB - 14,300 ft / 4,359 m 37.25333˚ 27.66917˚ 54 nm 54 nm 339° / 338° MILAS BODRUM NDB
O LTBJ APT - 0 ft / 0 m 38.29221˚ 27.15594˚ 66 nm 121 nm 339° / 339° ADNAN MENDERES

Altitude Profile

Advertisement - Login to hide

LGRP

Details ICAO LGRP (RHO)
Name DIAGORAS
Region Greece
Timezone Europe/Athens (UTC+2.0)
Stats Elevation 17 ft / 5 m (AMSL)
Location 36.405420° 28.086193°
Runways 1
Magnetic Variation 4.779° E

METAR

LGRP 120220Z VRB02KT 9999 FEW018 SCT025 13/12 Q1024 NOSIG

Decode

TAF

TAF LGRP 112300Z 1200/1224 VRB03KT 9999 FEW018 SCT025 BECMG 1212/1214 28013KT FEW020

Decode

Departure Runways

ID Width Length Bearing (true) Bearing (mag) Surface Threshold Offset Overrun Length
07 148 ft / 45 m 10,830 ft / 3,301 m 69.97° 65.19° Asphalt 0 ft / 0 m 0 ft / 0 m
25 148 ft / 45 m 10,830 ft / 3,301 m 249.99° 245.21° Asphalt 0 ft / 0 m 0 ft / 0 m

LTBJ

Details ICAO LTBJ (ADB)
Name ADNAN MENDERES
Region Turkey
Timezone Europe/Istanbul (UTC+3.0)
Stats Elevation 412 ft / 126 m (AMSL)
Location 38.292210° 27.155939°
Runways 2
Magnetic Variation 4.895° E

METAR

LTBJ 120220Z 00000KT 4900 BR SCT025 BKN100 09/08 Q1024 NOSIG

Decode

TAF

Not found

Destination Runways

ID Width Length Bearing (true) Bearing (mag) Surface Threshold Offset Overrun Length
16L 147 ft / 45 m 10,635 ft / 3,242 m 166.78° 161.89° Asphalt 0 ft / 0 m 197 ft / 60 m
16R 147 ft / 45 m 10,651 ft / 3,246 m 166.71° 161.82° Concrete 0 ft / 0 m 197 ft / 60 m
34L 147 ft / 45 m 10,651 ft / 3,246 m 346.72° 341.83° Concrete 0 ft / 0 m 197 ft / 60 m
34R 147 ft / 45 m 10,635 ft / 3,242 m 346.79° 341.90° Asphalt 0 ft / 0 m 197 ft / 60 m

Approach Navaids

Runway Type Ident Frequency Range Bearing (true) Bearing (mag) Slope Elevation
16L Localiser IIMR 108.50 MHz 18 nm / 33 km 166.52° 161.62° - 412 ft / 126 m (AMSL)
16L Glidescope IIMR 108.50 MHz 10 nm / 19 km 166.78° 161.89° 3.10° 412 ft / 126 m (AMSL)
34R Localiser IMEN 110.30 MHz 18 nm / 33 km 346.86° 341.96° - 412 ft / 126 m (AMSL)
34R Glidescope IMEN 110.30 MHz 10 nm / 19 km 346.79° 341.89° 3.00° 412 ft / 126 m (AMSL)

Popular Alternatives